| time (UTC) | temp F | wind direction | speed MPH | gust MPH | rain 1hr in | rain 24hr in | rain mn in | humidity % | barometer mb |
| 20260906233800 | 69 | 209 | 3.0 | 7.0 | 0.00 | 0.00 | 0.00 | 47 | 1013.7 |
| 20260906232802 | 70 | 194 | 4.0 | 6.0 | 0.00 | 0.00 | 0.00 | 46 | 1013.6 |
| 20260906231758 | 70 | 185 | 4.0 | 9.0 | 0.00 | 0.00 | 0.00 | 45 | 1013.8 |
| 20260906230758 | 70 | 193 | 7.0 | 15.0 | 0.00 | 0.00 | 0.00 | 42 | 1013.7 |
| 20260906225756 | 71 | 237 | 6.0 | 13.0 | 0.00 | 0.00 | 0.00 | 42 | 1014.3 |
| 20260906224752 | 71 | 233 | 5.0 | 11.0 | 0.00 | 0.00 | 0.00 | 42 | 1014.5 |
| 20260906222751 | 71 | 239 | 5.0 | 10.0 | 0.00 | 0.00 | 0.00 | 41 | 1014.7 |
| 20260906221749 | 72 | 203 | 6.0 | 13.0 | 0.00 | 0.00 | 0.00 | 40 | 1014.8 |
| 20260906214745 | 72 | 267 | 9.0 | 15.0 | 0.00 | 0.00 | 0.00 | 39 | 1015.2 |
| 20260906213744 | 71 | 262 | 8.0 | 13.0 | 0.00 | 0.00 | 0.00 | 40 | 1015.0 |
| 20260906212744 | 72 | 212 | 10.0 | 16.0 | 0.00 | 0.00 | 0.00 | 39 | 1015.2 |
| 20260906211742 | 72 | 207 | 10.0 | 17.0 | 0.00 | 0.00 | 0.00 | 38 | 1015.4 |
| 20260906210742 | 73 | 262 | 8.0 | 16.0 | 0.00 | 0.00 | 0.00 | 40 | 1015.8 |
| 20260906205742 | 72 | 226 | 10.0 | 15.0 | 0.00 | 0.00 | 0.00 | 40 | 1015.9 |
| 20260906204740 | 72 | 207 | 11.0 | 19.0 | 0.00 | 0.00 | 0.00 | 36 | 1015.6 |
| 20260906203735 | 72 | 235 | 11.0 | 18.0 | 0.00 | 0.00 | 0.00 | 36 | 1015.8 |
| 20260906202733 | 72 | 217 | 11.0 | 18.0 | 0.00 | 0.00 | 0.00 | 38 | 1015.9 |
| 20260906201734 | 72 | 241 | 13.0 | 22.0 | 0.00 | 0.00 | 0.00 | 38 | 1015.8 |
| 20260906200731 | 72 | 211 | 11.0 | 18.0 | 0.00 | 0.00 | 0.00 | 38 | 1015.9 |
| 20260906195730 | 72 | 162 | 10.0 | 21.0 | 0.00 | 0.00 | 0.00 | 37 | 1015.8 |
| 20260906193728 | 73 | 185 | 14.0 | 28.0 | 0.00 | 0.00 | 0.00 | 36 | 1016.1 |
| 20260906191726 | 73 | 180 | 14.0 | 23.0 | 0.00 | 0.00 | 0.00 | 33 | 1016.2 |
| 20260906190722 | 74 | 233 | 15.0 | 24.0 | 0.00 | 0.00 | 0.00 | 33 | 1016.9 |
| 20260906185721 | 74 | 154 | 9.0 | 23.0 | 0.00 | 0.00 | 0.00 | 34 | 1016.9 |
| 20260906184720 | 71 | 166 | 9.0 | 19.0 | 0.00 | 0.00 | 0.00 | 35 | 1016.0 |
| 20260906182717 | 73 | 180 | 15.0 | 30.0 | 0.00 | 0.00 | 0.00 | 33 | 1016.5 |
| 20260906181717 | 74 | 237 | 13.0 | 23.0 | 0.00 | 0.00 | 0.00 | 30 | 1017.2 |
| 20260906180713 | 74 | 193 | 12.0 | 21.0 | 0.00 | 0.00 | 0.00 | 31 | 1016.9 |
| 20260906175712 | 74 | 185 | 12.0 | 23.0 | 0.00 | 0.00 | 0.00 | 32 | 1017.0 |
| 20260906174713 | 74 | 244 | 13.0 | 23.0 | 0.00 | 0.00 | 0.00 | 32 | 1016.9 |
| 20260906173709 | 74 | 148 | 12.0 | 25.0 | 0.00 | 0.00 | 0.00 | 36 | 1017.6 |
| 20260906172707 | 74 | 228 | 12.0 | 26.0 | 0.00 | 0.00 | 0.00 | 32 | 1017.5 |
| 20260906171707 | 74 | 212 | 11.0 | 20.0 | 0.00 | 0.00 | 0.00 | 32 | 1017.3 |
| 20260906170708 | 73 | 175 | 10.0 | 22.0 | 0.00 | 0.00 | 0.00 | 36 | 1017.6 |
| 20260906165703 | 73 | 210 | 11.0 | 22.0 | 0.00 | 0.00 | 0.00 | 34 | 1017.5 |
| 20260906164702 | 73 | 180 | 10.0 | 20.0 | 0.00 | 0.00 | 0.00 | 35 | 1017.6 |
| 20260906163701 | 72 | 154 | 9.0 | 20.0 | 0.00 | 0.00 | 0.00 | 38 | 1017.6 |
| 20260906162700 | 71 | 143 | 11.0 | 20.0 | 0.00 | 0.00 | 0.00 | 37 | 1017.2 |
| 20260906161658 | 71 | 200 | 8.0 | 18.0 | 0.00 | 0.00 | 0.00 | 38 | 1017.5 |
| 20260906160656 | 71 | 180 | 8.0 | 19.0 | 0.00 | 0.00 | 0.00 | 37 | 1017.3 |
| 20260906155657 | 71 | 170 | 6.0 | 14.0 | 0.00 | 0.00 | 0.00 | 40 | 1017.6 |
| 20260906154653 | 69 | 185 | 5.0 | 10.0 | 0.00 | 0.00 | 0.00 | 42 | 1016.9 |
| 20260906153651 | 67 | 208 | 3.0 | 9.0 | 0.00 | 0.00 | 0.00 | 47 | 1016.1 |
| 20260906152652 | 65 | 249 | 2.0 | 7.0 | 0.00 | 0.00 | 0.00 | 45 | 1015.5 |
| 20260906151652 | 63 | 90 | 2.0 | 5.0 | 0.00 | 0.00 | 0.00 | 45 | 1014.9 |
| 20260906150648 | 62 | 198 | 2.0 | 5.0 | 0.00 | 0.00 | 0.00 | 49 | 1014.2 |
| 20260906145638 | 60 | 308 | 3.0 | 7.0 | 0.00 | 0.00 | 0.00 | 51 | 1013.3 |
| 20260906144635 | 58 | 315 | 3.0 | 7.0 | 0.00 | 0.00 | 0.00 | 52 | 1012.8 |
| 20260906143637 | 57 | 303 | 2.0 | 5.0 | 0.00 | 0.00 | 0.00 | 56 | 1012.2 |
| 20260906142637 | 56 | 318 | 0.0 | 2.0 | 0.00 | 0.00 | 0.00 | 54 | 1011.9 |
| 20260906141628 | 55 | 292 | 0.0 | 2.0 | 0.00 | 0.00 | 0.00 | 54 | 1011.5 |
| 20260906134555 | 53 | 23 | 0.0 | 2.0 | 0.00 | 0.00 | 0.00 | 56 | 1010.4 |
| 20260906133553 | 52 | 180 | 0.0 | 1.0 | 0.00 | 0.00 | 0.00 | 56 | 1010.2 |
| 20260906132551 | 52 | 180 | 0.0 | 3.0 | 0.00 | 0.00 | 0.00 | 56 | 1010.1 |
| 20260906131552 | 52 | 180 | 0.0 | 0.0 | 0.00 | 0.00 | 0.00 | 55 | 1010.1 |
| 20260906130551 | 51 | 180 | 0.0 | 0.0 | 0.00 | 0.00 | 0.00 | 56 | 1009.7 |
| 20260906125545 | 52 | 180 | 0.0 | 2.0 | 0.00 | 0.00 | 0.00 | 56 | 1009.9 |
| 20260906124543 | 52 | 180 | 0.0 | 1.0 | 0.00 | 0.00 | 0.00 | 54 | 1009.9 |
| 20260906123509 | 52 | 180 | 0.0 | 3.0 | 0.00 | 0.00 | 0.00 | 54 | 1010.1 |
| 20260906122457 | 52 | 180 | 0.0 | 2.0 | 0.00 | 0.00 | 0.00 | 54 | 1009.9 |
| 20260906121453 | 52 | 180 | 1.0 | 3.0 | 0.00 | 0.00 | 0.00 | 54 | 1009.8 |
| 20260906115435 | 52 | 180 | 0.0 | 2.0 | 0.00 | 0.00 | 0.00 | 54 | 1009.8 |
| 20260906114410 | 51 | 180 | 0.0 | 3.0 | 0.00 | 0.00 | 0.00 | 55 | 1009.6 |
| 20260906113348 | 51 | 180 | 1.0 | 4.0 | 0.00 | 0.00 | 0.00 | 55 | 1009.8 |
| 20260906112344 | 51 | 180 | 0.0 | 1.0 | 0.00 | 0.00 | 0.00 | 55 | 1009.6 |
| 20260906111342 | 51 | 180 | 0.0 | 2.0 | 0.00 | 0.00 | 0.00 | 55 | 1009.5 |
| 20260906110338 | 51 | 180 | 2.0 | 4.0 | 0.00 | 0.00 | 0.00 | 56 | 1009.5 |
| 20260906104318 | 51 | 180 | 1.0 | 4.0 | 0.00 | 0.00 | 0.00 | 56 | 1009.2 |
| 20260906102318 | 50 | 180 | 1.0 | 5.0 | 0.00 | 0.00 | 0.00 | 58 | 1008.8 |
| 20260906101315 | 50 | 180 | 2.0 | 6.0 | 0.00 | 0.00 | 0.00 | 59 | 1008.7 |
| 20260906100312 | 51 | 180 | 1.0 | 4.0 | 0.00 | 0.00 | 0.00 | 58 | 1008.8 |
| 20260906094306 | 51 | 180 | 2.0 | 6.0 | 0.00 | 0.00 | 0.00 | 56 | 1009.0 |
| 20260906093301 | 51 | 180 | 2.0 | 4.0 | 0.00 | 0.00 | 0.00 | 57 | 1008.8 |
| 20260906092259 | 51 | 180 | 2.0 | 4.0 | 0.00 | 0.00 | 0.00 | 58 | 1008.8 |
| 20260906091254 | 51 | 180 | 1.0 | 4.0 | 0.00 | 0.00 | 0.00 | 57 | 1008.8 |
| 20260906085252 | 51 | 180 | 1.0 | 4.0 | 0.00 | 0.00 | 0.00 | 58 | 1008.6 |
| 20260906084251 | 51 | 180 | 0.0 | 1.0 | 0.00 | 0.00 | 0.00 | 59 | 1008.6 |
| 20260906083252 | 51 | 180 | 0.0 | 2.0 | 0.00 | 0.00 | 0.00 | 59 | 1008.7 |
| 20260906082251 | 51 | 180 | 0.0 | 3.0 | 0.00 | 0.00 | 0.00 | 58 | 1009.0 |
| 20260906081249 | 52 | 180 | 0.0 | 1.0 | 0.00 | 0.00 | 0.00 | 57 | 1009.2 |
| 20260906080250 | 52 | 180 | 1.0 | 3.0 | 0.00 | 0.00 | 0.00 | 57 | 1009.2 |
| 20260906075250 | 52 | 180 | 1.0 | 3.0 | 0.00 | 0.00 | 0.00 | 57 | 1009.2 |
| 20260906074250 | 53 | 180 | 1.0 | 2.0 | 0.00 | 0.00 | 0.00 | 56 | 1009.5 |
| 20260906073247 | 53 | 180 | 1.0 | 2.0 | 0.00 | 0.00 | 0.00 | 51 | 1009.8 |
| 20260906072248 | 54 | 63 | 2.0 | 5.0 | 0.00 | 0.00 | 0.00 | 51 | 1009.7 |
| 20260906071248 | 54 | 38 | 1.0 | 4.0 | 0.00 | 0.00 | 0.00 | 51 | 1009.7 |
| 20260906070247 | 54 | 62 | 1.0 | 3.0 | 0.00 | 0.00 | 0.00 | 51 | 1009.7 |
| 20260906064246 | 53 | 180 | 1.0 | 4.0 | 0.00 | 0.00 | 0.00 | 51 | 1009.5 |
| 20260906063243 | 53 | 25 | 1.0 | 3.0 | 0.00 | 0.00 | 0.00 | 52 | 1009.5 |
| 20260906062242 | 54 | 39 | 1.0 | 3.0 | 0.00 | 0.00 | 0.00 | 51 | 1009.7 |
| 20260906061242 | 54 | 39 | 1.0 | 5.0 | 0.00 | 0.00 | 0.00 | 51 | 1009.7 |
| 20260906060245 | 55 | 39 | 1.0 | 4.0 | 0.00 | 0.00 | 0.00 | 49 | 1009.9 |
| 20260906055240 | 55 | 37 | 1.0 | 4.0 | 0.00 | 0.00 | 0.00 | 49 | 1009.9 |
| 20260906054229 | 54 | 327 | 1.0 | 4.0 | 0.00 | 0.00 | 0.00 | 50 | 1009.7 |
| 20260906053229 | 55 | 35 | 1.0 | 4.0 | 0.00 | 0.00 | 0.00 | 51 | 1009.9 |
| 20260906052216 | 57 | 33 | 1.0 | 3.0 | 0.00 | 0.00 | 0.00 | 49 | 1010.5 |
| 20260906051217 | 57 | 337 | 0.0 | 2.0 | 0.00 | 0.00 | 0.00 | 45 | 1010.5 |
| 20260906050220 | 57 | 39 | 0.0 | 1.0 | 0.00 | 0.00 | 0.00 | 46 | 1010.5 |
| 20260906045218 | 56 | 39 | 1.0 | 4.0 | 0.00 | 0.00 | 0.00 | 45 | 1010.4 |
| 20260906044213 | 57 | 72 | 0.0 | 3.0 | 0.00 | 0.00 | 0.00 | 46 | 1010.9 |
| 20260906043214 | 58 | 78 | 0.0 | 0.0 | 0.00 | 0.00 | 0.00 | 43 | 1010.9 |
| 20260906042151 | 59 | 78 | 0.0 | 1.0 | 0.00 | 0.00 | 0.00 | 43 | 1011.5 |
| 20260906041122 | 58 | 72 | 1.0 | 3.0 | 0.00 | 0.00 | 0.00 | 44 | 1011.0 |
| 20260906040119 | 58 | 43 | 0.0 | 3.0 | 0.00 | 0.00 | 0.00 | 47 | 1010.9 |
| 20260906034055 | 59 | 39 | 1.0 | 3.0 | 0.00 | 0.00 | 0.00 | 44 | 1011.2 |
| 20260906033053 | 60 | 52 | 1.0 | 4.0 | 0.00 | 0.00 | 0.00 | 44 | 1011.2 |
| 20260906032052 | 60 | 48 | 1.0 | 3.0 | 0.00 | 0.00 | 0.00 | 43 | 1010.9 |
| 20260906031053 | 61 | 77 | 1.0 | 3.0 | 0.00 | 0.00 | 0.00 | 40 | 1011.3 |
| 20260906024052 | 65 | 113 | 0.0 | 0.0 | 0.00 | 0.00 | 0.00 | 34 | 1012.6 |
| 20260906023009 | 65 | 113 | 0.0 | 0.0 | 0.00 | 0.00 | 0.00 | 33 | 1012.4 |
| 20260906022007 | 66 | 113 | 0.0 | 0.0 | 0.00 | 0.00 | 0.00 | 34 | 1012.5 |
| 20260906015938 | 69 | 113 | 0.0 | 0.0 | 0.00 | 0.00 | 0.00 | 32 | 1013.7 |
| 20260906014929 | 71 | 113 | 0.0 | 2.0 | 0.00 | 0.00 | 0.00 | 31 | 1014.3 |
| 20260906013908 | 72 | 113 | 1.0 | 2.0 | 0.00 | 0.00 | 0.00 | 31 | 1014.8 |
| 20260906012910 | 73 | 113 | 0.0 | 2.0 | 0.00 | 0.00 | 0.00 | 31 | 1015.4 |
| 20260906011906 | 74 | 168 | 1.0 | 3.0 | 0.00 | 0.00 | 0.00 | 29 | 1015.9 |
| 20260906010901 | 76 | 191 | 3.0 | 6.0 | 0.00 | 0.00 | 0.00 | 27 | 1016.5 |
| 20260906005858 | 77 | 237 | 5.0 | 11.0 | 0.00 | 0.00 | 0.00 | 25 | 1016.7 |
| 20260906004853 | 78 | 215 | 6.0 | 13.0 | 0.00 | 0.00 | 0.00 | 24 | 1017.2 |
| 20260906003851 | 78 | 264 | 6.0 | 13.0 | 0.00 | 0.00 | 0.00 | 22 | 1017.2 |
| 20260906001848 | 79 | 237 | 6.0 | 13.0 | 0.00 | 0.00 | 0.00 | 23 | 1017.3 |
| 20260906000848 | 79 | 243 | 8.0 | 15.0 | 0.00 | 0.00 | 0.00 | 23 | 1017.3 |
| 20260905235847 | 79 | 252 | 8.0 | 14.0 | 0.00 | 0.00 | 0.00 | 22 | 1017.5 |
| 20260905234844 | 79 | 264 | 7.0 | 14.0 | 0.00 | 0.00 | 0.00 | 22 | 1017.5 |
| 20260905233843 | 80 | 231 | 7.0 | 14.0 | 0.00 | 0.00 | 0.00 | 24 | 1017.6 |